Time;durP1;ratioP1;P1;durP2;ratioP2;P2;SDS_P1;SDS_P2;PMS_P1;PMS_P2;Temp;Humidity;BMP_temperature;BMP_pressure;BME280_temperature;BME280_humidity;BME280_pressure;Samples;Min_cycle;Max_cycle;Signal;HPM_P1;HPM_P2
2021/09/14 00:01:48;;;;;;;2.47;0.98;;;;;;;11.92;73.90;100752.25;5108369;28;20589;-70
2021/09/14 00:04:14;;;;;;;3.65;1.10;;;;;;;11.95;73.92;100749.63;5108819;28;20036;-70
2021/09/14 00:06:40;;;;;;;1.23;0.82;;;;;;;11.97;74.06;100750.44;5108431;28;20035;-70
2021/09/14 00:09:07;;;;;;;1.73;1.15;;;;;;;11.94;74.05;100734.88;5108383;28;20091;-70
2021/09/14 00:11:34;;;;;;;1.77;1.13;;;;;;;11.89;74.46;100738.38;5108179;28;20369;-70
2021/09/14 00:13:59;;;;;;;3.70;0.85;;;;;;;11.93;74.35;100743.56;5108120;28;20024;-69
2021/09/14 00:16:25;;;;;;;1.77;1.10;;;;;;;11.86;74.59;100748.81;5107768;28;20365;-70
2021/09/14 00:18:51;;;;;;;2.08;1.00;;;;;;;11.80;74.85;100746.28;5108320;28;20044;-69
2021/09/14 00:21:17;;;;;;;1.05;0.75;;;;;;;11.70;74.77;100721.19;5107676;28;20131;-70
2021/09/14 00:23:42;;;;;;;1.60;1.00;;;;;;;11.83;75.16;100743.66;5108206;28;20024;-69
2021/09/14 00:26:07;;;;;;;4.03;1.13;;;;;;;11.82;75.01;100744.50;5107827;28;20024;-70
2021/09/14 00:28:33;;;;;;;2.42;0.98;;;;;;;11.77;75.28;100735.91;5089853;28;20094;-70
2021/09/14 00:30:58;;;;;;;2.67;1.20;;;;;;;11.76;75.41;100744.56;5107810;28;20107;-69
2021/09/14 00:33:24;;;;;;;1.60;0.90;;;;;;;11.73;75.50;100745.44;5089294;28;20032;-69
2021/09/14 00:35:49;;;;;;;1.83;1.00;;;;;;;11.61;76.04;100736.00;5106919;28;20110;-69
2021/09/14 00:38:14;;;;;;;3.00;0.73;;;;;;;11.61;76.46;100733.38;5107788;28;20050;-69
2021/09/14 00:40:40;;;;;;;4.68;1.17;;;;;;;11.67;76.46;100737.69;5089404;28;20392;-70
2021/09/14 00:43:05;;;;;;;1.88;0.93;;;;;;;11.63;76.63;100734.25;5107931;28;20028;-71
2021/09/14 00:45:30;;;;;;;2.90;1.40;;;;;;;11.58;76.75;100732.56;5089262;28;20020;-70
2021/09/14 00:47:56;;;;;;;1.85;1.08;;;;;;;11.52;76.97;100728.25;5107200;28;20089;-70
2021/09/14 00:50:21;;;;;;;2.55;1.20;;;;;;;11.44;77.18;100724.88;5107574;28;20079;-70
2021/09/14 00:52:47;;;;;;;2.35;1.02;;;;;;;11.45;77.29;100740.47;5107613;28;20056;-70
2021/09/14 00:55:12;;;;;;;1.92;1.20;;;;;;;11.40;77.54;100724.91;5107495;28;20024;-70
2021/09/14 00:57:38;;;;;;;4.78;1.70;;;;;;;11.37;77.69;100727.50;5107378;28;20077;-70
2021/09/14 01:00:05;;;;;;;1.90;1.13;;;;;;;11.47;77.81;100735.25;5107192;28;20020;-70
2021/09/14 01:02:30;;;;;;;2.78;1.48;;;;;;;11.46;78.16;100738.69;5089036;28;20383;-70
2021/09/14 01:04:57;;;;;;;2.90;1.45;;;;;;;11.46;78.10;100738.69;5106942;28;20107;-71
2021/09/14 01:07:23;;;;;;;3.83;1.25;;;;;;;11.53;78.43;100732.59;5107247;28;20112;-70
2021/09/14 01:09:49;;;;;;;2.67;1.23;;;;;;;11.55;78.66;100737.78;5107202;28;20032;-70
2021/09/14 01:12:18;;;;;;;1.90;1.30;;;;;;;11.55;78.79;100733.44;5107111;28;20377;-70
2021/09/14 01:14:57;;;;;;;4.35;1.40;;;;;;;11.58;79.20;100733.41;5106857;28;20106;-71
2021/09/14 01:17:24;;;;;;;4.70;1.50;;;;;;;11.58;79.24;100735.16;5106853;28;20020;-69
2021/09/14 01:19:49;;;;;;;3.97;2.20;;;;;;;11.49;79.20;100730.88;5107121;28;20076;-70
2021/09/14 01:22:16;;;;;;;3.97;1.80;;;;;;;11.49;78.91;100739.56;5106858;28;20090;-70
2021/09/14 01:24:42;;;;;;;3.97;1.50;;;;;;;11.49;79.20;100743.88;5106881;28;20049;-70
2021/09/14 01:27:07;;;;;;;2.63;1.52;;;;;;;11.49;79.59;100742.16;5106465;28;20024;-71
2021/09/14 01:32:17;;;;;;;6.57;1.73;;;;;;;11.56;79.90;100739.50;5106706;28;20085;-70
2021/09/14 01:34:42;;;;;;;1.95;1.30;;;;;;;11.66;79.94;100730.78;5106387;28;20031;-70
2021/09/14 01:37:08;;;;;;;3.00;1.52;;;;;;;11.65;80.40;100742.91;5106241;28;20024;-71
2021/09/14 01:39:33;;;;;;;1.92;1.20;;;;;;;11.62;80.63;100734.25;5106362;28;20077;-70
2021/09/14 01:41:58;;;;;;;2.13;1.40;;;;;;;11.60;80.66;100730.81;5106497;28;20035;-70
2021/09/14 01:44:24;;;;;;;2.78;1.42;;;;;;;11.52;80.81;100734.34;5106119;28;20030;-70
2021/09/14 01:46:51;;;;;;;4.05;2.03;;;;;;;11.57;81.16;100734.28;5106040;28;20042;-70
2021/09/14 01:49:17;;;;;;;1.90;1.45;;;;;;;11.57;81.26;100741.22;5106327;28;20139;-71
2021/09/14 01:51:43;;;;;;;2.80;1.80;;;;;;;11.58;81.35;100741.22;5106194;28;20024;-70
2021/09/14 01:54:08;;;;;;;4.72;1.60;;;;;;;11.45;81.38;100727.47;5106108;28;20408;-70
2021/09/14 01:56:33;;;;;;;4.40;2.03;;;;;;;11.50;81.57;100735.22;5106124;28;20075;-70
2021/09/14 01:58:59;;;;;;;3.40;1.40;;;;;;;11.47;81.59;100735.25;5106020;28;20034;-70
2021/09/14 02:01:29;;;;;;;4.22;1.65;;;;;;;11.47;81.98;100732.66;5105781;28;20024;-70
2021/09/14 02:04:04;;;;;;;3.30;1.75;;;;;;;11.48;81.69;100739.56;5106027;28;20101;-70
2021/09/14 02:58:38;;;;;;;4.30;2.30;;;;;;;11.13;84.02;100737.16;5045166;28;20040;-71
2021/09/14 03:01:03;;;;;;;5.95;2.35;;;;;;;11.21;84.40;100728.47;5030344;28;20033;-71
2021/09/14 03:03:29;;;;;;;5.18;2.22;;;;;;;11.33;84.00;100735.31;5047008;28;20029;-71
2021/09/14 03:05:54;;;;;;;3.17;2.20;;;;;;;11.33;83.97;100738.78;5046642;28;20104;-70
2021/09/14 03:08:19;;;;;;;4.97;2.45;;;;;;;11.29;84.03;100729.28;5046847;28;20029;-70
2021/09/14 03:10:45;;;;;;;6.30;2.58;;;;;;;11.31;83.78;100731.88;5046900;28;20029;-70
2021/09/14 03:13:10;;;;;;;3.47;2.50;;;;;;;11.33;83.82;100735.31;5083554;28;20487;-70
2021/09/14 03:15:36;;;;;;;3.55;2.53;;;;;;;11.30;83.74;100744.00;5091215;28;20054;-70
2021/09/14 03:18:01;;;;;;;4.43;1.90;;;;;;;11.26;84.24;100742.31;5091076;28;20058;-70
2021/09/14 03:20:26;;;;;;;2.88;2.13;;;;;;;11.28;84.39;100737.94;5109438;28;20024;-71
2021/09/14 03:22:52;;;;;;;5.43;2.40;;;;;;;11.35;84.44;100737.06;5109246;28;20067;-70
2021/09/14 03:25:17;;;;;;;4.00;2.38;;;;;;;11.33;84.43;100731.00;5109147;28;20027;-70
2021/09/14 03:27:42;;;;;;;3.22;2.50;;;;;;;11.30;84.52;100736.22;5109095;28;20032;-70
2021/09/14 03:30:08;;;;;;;4.72;2.53;;;;;;;11.35;84.35;100747.44;5109214;28;20031;-71
2021/09/14 03:32:33;;;;;;;4.82;3.08;;;;;;;11.29;84.69;100737.09;5108893;28;20077;-70
2021/09/14 03:34:59;;;;;;;4.10;2.40;;;;;;;11.32;84.80;100734.47;5108915;28;20030;-71
2021/09/14 03:37:24;;;;;;;5.00;2.40;;;;;;;11.19;85.02;100715.50;5108709;28;20084;-70
2021/09/14 03:39:50;;;;;;;6.00;3.50;;;;;;;11.34;85.14;100740.50;5108665;28;20020;-71
2021/09/14 03:42:15;;;;;;;4.13;2.58;;;;;;;11.37;85.55;100737.88;5108756;28;20023;-71
2021/09/14 03:44:40;;;;;;;5.90;2.67;;;;;;;11.38;85.67;100737.03;5108632;28;20051;-71
2021/09/14 03:47:06;;;;;;;6.05;2.58;;;;;;;11.39;85.80;100741.34;5108335;28;20025;-71
2021/09/14 03:49:31;;;;;;;4.25;2.42;;;;;;;11.53;85.50;100738.66;5108670;28;20028;-70
2021/09/14 03:51:56;;;;;;;3.20;2.33;;;;;;;11.56;85.48;100748.19;5108651;28;20028;-71
2021/09/14 03:54:22;;;;;;;4.95;2.95;;;;;;;11.53;85.11;100741.25;5108612;28;20028;-71
2021/09/14 03:56:47;;;;;;;4.03;2.42;;;;;;;11.60;84.75;100744.66;5108663;28;20396;-71
2021/09/14 03:59:12;;;;;;;4.22;3.15;;;;;;;11.59;84.92;100745.56;5090093;28;20016;-72
2021/09/14 04:01:39;;;;;;;3.60;2.53;;;;;;;11.57;85.58;100749.91;5108085;28;20048;-71
2021/09/14 04:04:18;;;;;;;7.10;2.88;;;;;;;11.58;85.78;100750.78;5108247;28;20020;-70
2021/09/14 04:09:17;;;;;;;6.57;2.80;;;;;;;11.55;85.40;100743.00;5106811;28;20032;-69
2021/09/14 04:11:43;;;;;;;6.82;3.20;;;;;;;11.50;85.29;100753.44;5108018;28;20031;-69
2021/09/14 04:14:09;;;;;;;10.95;3.40;;;;;;;11.45;84.84;100748.25;5108016;28;20028;-69
2021/09/14 04:16:34;;;;;;;5.03;2.65;;;;;;;11.45;84.98;100752.59;5107989;28;20020;-70
2021/09/14 04:19:00;;;;;;;6.97;2.50;;;;;;;11.38;84.75;100739.63;5108209;28;20024;-71
2021/09/14 04:21:25;;;;;;;5.18;3.03;;;;;;;11.35;85.09;100746.56;5089702;28;20139;-68
2021/09/14 04:23:50;;;;;;;3.88;2.53;;;;;;;11.37;85.09;100748.28;5107959;28;20027;-68
2021/09/14 04:26:16;;;;;;;5.72;3.10;;;;;;;11.26;85.33;100752.72;5107754;28;20020;-68
2021/09/14 04:28:41;;;;;;;5.60;2.80;;;;;;;11.23;85.26;100750.13;5107909;28;20048;-74
2021/09/14 04:31:07;;;;;;;5.00;3.35;;;;;;;11.14;85.72;100746.69;5107630;28;20024;-66
2021/09/14 04:33:32;;;;;;;4.18;3.20;;;;;;;11.19;85.76;100740.59;5107573;28;20024;-69
2021/09/14 04:35:57;;;;;;;3.35;2.38;;;;;;;11.25;85.81;100754.44;5107255;28;20092;-69
2021/09/14 04:38:23;;;;;;;4.78;3.08;;;;;;;11.19;85.80;100756.19;5107532;28;20024;-68
2021/09/14 04:40:48;;;;;;;4.25;2.85;;;;;;;11.23;85.49;100757.94;5107479;28;20023;-69
2021/09/14 04:43:13;;;;;;;4.68;2.85;;;;;;;11.17;85.73;100755.34;5107734;28;20020;-69
2021/09/14 04:45:39;;;;;;;3.88;2.63;;;;;;;11.17;86.05;100753.59;5089465;28;20020;-69
2021/09/14 04:48:04;;;;;;;4.43;2.70;;;;;;;11.23;86.15;100757.94;5107380;28;20469;-69
2021/09/14 04:50:30;;;;;;;5.38;3.03;;;;;;;11.13;86.56;100751.91;5107696;28;20024;-70
2021/09/14 04:52:55;;;;;;;4.82;3.13;;;;;;;11.19;86.51;100756.19;5107466;28;20099;-70
2021/09/14 04:55:20;;;;;;;6.38;3.28;;;;;;;11.25;86.62;100757.03;5107522;28;20016;-70
2021/09/14 04:57:46;;;;;;;4.88;3.25;;;;;;;11.31;86.22;100766.50;5107409;28;20111;-70
2021/09/14 05:00:14;;;;;;;7.97;3.25;;;;;;;11.31;86.52;100750.91;5107186;28;20107;-70
2021/09/14 05:02:40;;;;;;;7.00;3.35;;;;;;;11.35;86.61;100755.25;5088800;28;20030;-70
2021/09/14 05:05:05;;;;;;;4.60;3.58;;;;;;;11.38;86.44;100756.94;5107262;28;20043;-70
2021/09/14 05:07:31;;;;;;;6.35;3.55;;;;;;;11.45;86.66;100753.47;5107493;28;20123;-71
2021/09/14 05:09:56;;;;;;;6.85;3.88;;;;;;;11.51;86.82;100752.53;5107255;28;20039;-70
2021/09/14 05:12:22;;;;;;;5.38;3.85;;;;;;;11.52;86.81;100744.72;5107216;28;20024;-70
2021/09/14 05:14:47;;;;;;;5.13;3.50;;;;;;;11.52;86.50;100743.84;5107233;28;20050;-70
2021/09/14 05:17:12;;;;;;;6.65;3.67;;;;;;;11.59;85.79;100745.56;5088670;28;20099;-70
2021/09/14 05:19:38;;;;;;;7.63;3.70;;;;;;;11.57;85.86;100752.50;5106784;28;20020;-71
2021/09/14 05:22:04;;;;;;;7.35;3.80;;;;;;;11.49;86.18;100747.34;5106141;28;20044;-70
2021/09/14 05:24:31;;;;;;;7.43;4.05;;;;;;;11.63;86.16;100752.44;5106765;28;20024;-70
2021/09/14 05:26:58;;;;;;;5.10;3.60;;;;;;;11.63;86.59;100755.06;5106534;28;20035;-71
2021/09/14 05:29:24;;;;;;;5.95;3.60;;;;;;;11.65;86.67;100749.84;5106774;28;20020;-71
2021/09/14 05:31:51;;;;;;;5.55;4.00;;;;;;;11.69;86.50;100756.75;5106716;28;20095;-71
2021/09/14 05:34:16;;;;;;;6.05;3.20;;;;;;;11.71;86.21;100755.00;5088348;28;20439;-71
2021/09/14 05:36:43;;;;;;;6.15;4.30;;;;;;;11.77;85.99;100756.69;5106779;28;20073;-71
2021/09/14 05:39:08;;;;;;;6.45;3.95;;;;;;;11.79;85.47;100754.94;5106525;28;20089;-71
2021/09/14 05:41:34;;;;;;;7.40;3.80;;;;;;;11.80;85.52;100751.47;5088372;28;20028;-71
2021/09/14 05:43:59;;;;;;;5.07;3.60;;;;;;;11.76;85.58;100755.81;5088333;28;20026;-69
2021/09/14 05:46:25;;;;;;;5.05;3.75;;;;;;;11.79;85.49;100757.53;5106685;28;20023;-70
2021/09/14 05:48:51;;;;;;;5.72;3.60;;;;;;;11.81;85.07;100768.78;5106489;28;20116;-69
2021/09/14 05:51:17;;;;;;;7.07;4.57;;;;;;;11.84;86.12;100760.09;5106598;28;20434;-71
2021/09/14 05:53:42;;;;;;;6.80;4.20;;;;;;;11.93;86.56;100764.38;5088261;28;20032;-70
2021/09/14 05:56:08;;;;;;;5.88;3.88;;;;;;;12.38;87.74;100761.41;5106004;28;20023;-70
2021/09/14 05:58:33;;;;;;;7.40;3.45;;;;;;;12.94;87.92;100755.53;5106310;28;20038;-70
2021/09/14 06:00:59;;;;;;;7.85;4.20;;;;;;;13.57;86.14;100765.16;5088032;28;20016;-70
2021/09/14 06:03:27;;;;;;;5.88;3.65;;;;;;;13.91;84.59;100771.59;5106125;28;20020;-70
2021/09/14 06:05:52;;;;;;;4.90;3.47;;;;;;;14.07;82.87;100770.47;5087803;28;20458;-70
2021/09/14 06:08:17;;;;;;;5.38;3.85;;;;;;;14.07;80.93;100769.59;5105905;28;20016;-70
2021/09/14 06:10:43;;;;;;;6.53;3.65;;;;;;;13.93;79.92;100770.66;5106054;28;20073;-70
2021/09/14 06:13:08;;;;;;;5.10;3.30;;;;;;;13.77;79.71;100762.22;5105963;28;20141;-69
2021/09/14 06:15:33;;;;;;;6.45;3.45;;;;;;;13.72;80.33;100758.84;5106019;28;20382;-70
2021/09/14 06:17:59;;;;;;;6.65;3.63;;;;;;;13.90;79.98;100777.69;5105722;28;20026;-68
2021/09/14 06:20:24;;;;;;;4.57;2.80;;;;;;;14.02;80.07;100777.50;5105854;28;20074;-68
2021/09/14 06:22:49;;;;;;;4.68;3.20;;;;;;;14.13;80.09;100769.47;5105833;28;20218;-69
2021/09/14 06:25:15;;;;;;;4.35;3.35;;;;;;;14.45;79.85;100764.56;5105638;28;20028;-68
2021/09/14 06:27:41;;;;;;;5.85;3.35;;;;;;;14.97;77.62;100778.34;5105674;28;20062;-68
2021/09/14 06:30:07;;;;;;;3.90;2.97;;;;;;;15.06;76.73;100769.47;5105994;28;20024;-68
2021/09/14 06:32:32;;;;;;;3.97;3.15;;;;;;;15.16;77.36;100764.03;5105316;28;20020;-68
2021/09/14 06:34:58;;;;;;;5.63;3.05;;;;;;;15.42;74.17;100775.66;5105871;28;20024;-68
2021/09/14 06:37:23;;;;;;;4.93;3.00;;;;;;;15.35;74.10;100778.41;5105803;28;20076;-68
2021/09/14 06:39:49;;;;;;;4.38;2.58;;;;;;;15.63;75.88;100773.44;5105778;28;20016;-68
2021/09/14 06:42:14;;;;;;;7.25;3.22;;;;;;;15.83;72.75;100775.59;5105684;28;20114;-69
2021/09/14 06:44:39;;;;;;;3.90;2.78;;;;;;;15.61;72.43;100769.13;5105634;28;20085;-69
2021/09/14 06:47:05;;;;;;;7.72;2.97;;;;;;;15.49;73.15;100772.03;5105298;28;20032;-68
2021/09/14 06:49:31;;;;;;;4.80;2.95;;;;;;;15.50;72.43;100771.13;5105641;28;20032;-68
2021/09/14 06:51:56;;;;;;;6.78;3.28;;;;;;;15.50;72.52;100765.88;5105553;28;20410;-67
2021/09/14 06:54:22;;;;;;;4.45;2.97;;;;;;;15.49;72.25;100770.25;5105290;28;20039;-68
2021/09/14 06:56:48;;;;;;;5.20;3.30;;;;;;;15.52;72.84;100777.19;5105580;28;20025;-68
2021/09/14 06:59:13;;;;;;;5.78;3.08;;;;;;;15.48;72.37;100773.78;5105549;28;20020;-69
2021/09/14 07:01:38;;;;;;;5.72;3.40;;;;;;;15.48;72.04;100771.16;5105517;28;20468;-68
2021/09/14 07:04:04;;;;;;;8.38;2.72;;;;;;;15.61;72.21;100778.72;5105239;28;20024;-67
2021/09/14 07:06:29;;;;;;;4.10;2.08;;;;;;;16.02;71.52;100777.78;5105399;28;20028;-67
2021/09/14 07:08:55;;;;;;;3.55;2.90;;;;;;;16.37;69.85;100783.88;5105537;28;20028;-68
2021/09/14 07:11:20;;;;;;;4.07;2.35;;;;;;;16.60;70.56;100780.59;5105360;28;20047;-68
2021/09/14 07:13:45;;;;;;;6.00;2.58;;;;;;;16.93;69.05;100784.09;5105360;28;20047;-68
2021/09/14 07:16:11;;;;;;;4.70;2.22;;;;;;;17.11;68.73;100787.94;5105137;28;20081;-68
2021/09/14 07:18:38;;;;;;;5.40;2.53;;;;;;;17.20;69.32;100785.03;5105244;28;20043;-68
2021/09/14 07:21:04;;;;;;;4.60;2.50;;;;;;;17.76;68.36;100787.72;5105223;28;20024;-69
2021/09/14 07:23:30;;;;;;;7.43;2.45;;;;;;;17.94;65.24;100788.88;5105434;28;20035;-68
2021/09/14 07:25:56;;;;;;;6.15;2.60;;;;;;;17.65;65.31;100785.41;5105212;28;20020;-68
2021/09/14 07:28:21;;;;;;;8.82;2.80;;;;;;;17.43;65.70;100785.25;5104819;28;20143;-69
2021/09/14 07:30:46;;;;;;;3.97;1.90;;;;;;;17.05;66.01;100780.22;5105110;28;20024;-68
2021/09/14 07:33:13;;;;;;;4.22;2.17;;;;;;;16.76;66.70;100788.03;5105047;28;20043;-68
2021/09/14 07:35:39;;;;;;;3.72;2.30;;;;;;;16.52;67.91;100795.69;5086808;28;20024;-68
2021/09/14 07:38:05;;;;;;;6.03;2.15;;;;;;;16.48;67.78;100794.91;5105421;28;20031;-68
2021/09/14 07:40:30;;;;;;;4.50;2.00;;;;;;;16.17;68.50;100793.09;5104845;28;20028;-68
2021/09/14 07:42:57;;;;;;;5.05;2.15;;;;;;;15.88;70.40;100789.41;5105134;28;20020;-68
2021/09/14 07:45:23;;;;;;;4.00;2.35;;;;;;;15.88;70.21;100793.81;5108613;28;20024;-68
2021/09/14 07:47:48;;;;;;;3.22;2.17;;;;;;;15.91;69.98;100796.34;5108775;28;20024;-68
2021/09/14 07:50:14;;;;;;;5.78;2.22;;;;;;;15.90;69.87;100798.09;5108721;28;20024;-68
2021/09/14 07:52:40;;;;;;;6.57;1.92;;;;;;;15.93;69.95;100800.63;5108690;28;20377;-68
2021/09/14 07:55:06;;;;;;;3.33;1.85;;;;;;;16.04;69.46;100800.41;5108577;28;20028;-68
2021/09/14 07:57:32;;;;;;;3.75;2.13;;;;;;;15.97;69.59;100804.06;5108644;28;20020;-68
2021/09/14 07:59:58;;;;;;;6.55;2.30;;;;;;;15.90;69.96;100802.47;5108554;28;20050;-68
2021/09/14 08:02:24;;;;;;;6.85;2.22;;;;;;;15.91;69.98;100801.59;5108336;28;20031;-68
2021/09/14 08:04:50;;;;;;;4.75;2.30;;;;;;;15.91;69.56;100807.66;5108698;28;20426;-68
2021/09/14 08:07:16;;;;;;;7.05;2.10;;;;;;;15.85;69.51;100805.19;5108612;28;20028;-66
2021/09/14 08:09:42;;;;;;;5.25;2.00;;;;;;;15.74;70.06;100810.69;5108848;28;20034;-68
2021/09/14 08:12:07;;;;;;;4.68;2.22;;;;;;;15.74;70.33;100811.56;5108547;28;20362;-67
2021/09/14 08:14:33;;;;;;;5.50;1.92;;;;;;;15.89;69.40;100804.25;5108279;28;20486;-68
2021/09/14 08:16:58;;;;;;;4.95;1.70;;;;;;;15.90;70.02;100810.31;5108215;28;20028;-68
2021/09/14 08:19:24;;;;;;;4.18;1.90;;;;;;;16.07;69.61;100813.41;5090121;28;20024;-68
2021/09/14 08:21:49;;;;;;;4.80;1.83;;;;;;;16.40;70.78;100820.47;5107885;28;20047;-68
2021/09/14 08:24:15;;;;;;;6.88;2.50;;;;;;;17.03;69.12;100818.78;5107881;28;20023;-68
2021/09/14 08:26:41;;;;;;;5.50;2.30;;;;;;;17.45;68.08;100818.44;5108058;28;20051;-69
2021/09/14 08:29:06;;;;;;;3.10;1.73;;;;;;;17.76;66.14;100821.84;5089829;28;20027;-68
2021/09/14 08:31:32;;;;;;;7.30;1.75;;;;;;;17.88;65.60;100822.34;5108030;28;20028;-68
2021/09/14 08:33:58;;;;;;;3.83;1.48;;;;;;;18.17;64.69;100816.19;5108153;28;20024;-69
2021/09/14 08:36:24;;;;;;;3.45;1.77;;;;;;;18.40;63.41;100829.44;5107782;28;20064;-68
2021/09/14 08:38:50;;;;;;;6.53;2.00;;;;;;;18.68;63.51;100824.06;5108188;28;20020;-68
2021/09/14 08:41:16;;;;;;;2.58;1.83;;;;;;;18.94;63.15;100822.25;5108259;28;20043;-68
2021/09/14 08:43:44;;;;;;;4.10;1.98;;;;;;;19.46;62.39;100819.50;5107840;28;20466;-69
2021/09/14 08:46:11;;;;;;;3.63;1.92;;;;;;;19.89;60.05;100814.28;5107918;28;20023;-68
2021/09/14 08:48:36;;;;;;;4.55;1.83;;;;;;;19.99;57.99;100814.75;5107598;28;20024;-69
2021/09/14 08:51:06;;;;;;;3.38;1.88;;;;;;;19.86;57.06;100833.69;5107798;28;20035;-68
2021/09/14 08:53:34;;;;;;;5.00;2.03;;;;;;;19.45;57.76;100834.44;5107922;28;20016;-69
2021/09/14 08:56:02;;;;;;;6.25;2.33;;;;;;;19.16;58.98;100847.78;5106936;28;20047;-69
2021/09/14 08:58:27;;;;;;;4.03;1.80;;;;;;;18.93;58.30;100846.84;5107440;28;20392;-69
2021/09/14 09:00:52;;;;;;;4.18;2.40;;;;;;;18.61;59.99;100842.75;5107613;28;20031;-69
2021/09/14 09:03:23;;;;;;;6.32;1.90;;;;;;;18.52;59.94;100844.78;5107330;28;20171;-69
2021/09/14 09:05:49;;;;;;;4.15;1.60;;;;;;;18.38;60.37;100841.78;5107625;28;20035;-70
2021/09/14 09:08:20;;;;;;;7.53;2.08;;;;;;;18.18;61.50;100841.53;5107385;28;20084;-69
2021/09/14 09:11:12;;;;;;;6.03;2.55;;;;;;;18.17;61.09;100839.81;5107463;28;20020;-69
2021/09/14 09:13:43;;;;;;;;;;;;;;;18.13;60.67;100846.06;5098787;28;20032;-69
2021/09/14 09:16:24;;;;;;;4.50;2.45;;;;;;;17.76;62.08;100842.88;5107354;28;19908;-68
2021/09/14 09:18:54;;;;;;;3.33;2.07;;;;;;;17.62;62.97;100842.44;5106950;28;20027;-69
2021/09/14 09:21:28;;;;;;;4.72;2.15;;;;;;;17.52;63.38;100841.84;5106753;28;20547;-68
2021/09/14 09:23:58;;;;;;;4.50;1.63;;;;;;;17.43;63.62;100837.72;5107309;28;20020;-68
2021/09/14 09:26:35;;;;;;;6.95;1.92;;;;;;;17.46;63.77;100833.25;5106873;28;20044;-69
2021/09/14 09:29:05;;;;;;;7.03;2.25;;;;;;;17.58;63.71;100832.03;5106977;28;20499;-69
2021/09/14 09:31:32;;;;;;;5.15;1.90;;;;;;;17.65;63.63;100819.56;5107288;28;20087;-68
2021/09/14 09:34:07;;;;;;;6.32;1.98;;;;;;;17.92;62.38;100834.50;5106844;28;20020;-68
2021/09/14 09:36:39;;;;;;;7.45;2.10;;;;;;;17.81;62.09;100835.69;5106973;28;20122;-68
2021/09/14 09:39:09;;;;;;;7.03;2.08;;;;;;;17.66;63.10;100829.16;5106971;28;20056;-67
2021/09/14 09:41:35;;;;;;;8.20;2.10;;;;;;;17.67;63.21;100836.13;5106642;28;20080;-68
2021/09/14 09:44:08;;;;;;;6.13;2.38;;;;;;;17.58;63.26;100821.53;5106710;28;20020;-69
2021/09/14 09:46:35;;;;;;;6.38;2.47;;;;;;;17.65;62.87;100827.44;5106301;28;20027;-68
2021/09/14 09:49:02;;;;;;;6.97;2.47;;;;;;;17.63;62.91;100829.25;5106496;28;20024;-67
2021/09/14 09:51:29;;;;;;;3.70;2.35;;;;;;;17.61;63.29;100831.06;5106532;28;20028;-67
2021/09/14 09:53:55;;;;;;;8.98;2.58;;;;;;;17.68;63.39;100822.06;5088060;28;20047;-67
2021/09/14 09:56:22;;;;;;;3.35;1.92;;;;;;;17.75;63.79;100840.28;5106231;28;20057;-67
2021/09/14 09:58:50;;;;;;;14.75;3.08;;;;;;;17.80;63.64;100836.59;5106352;28;20027;-68
2021/09/14 10:01:17;;;;;;;5.47;2.35;;;;;;;18.02;63.36;100825.38;5106374;28;20038;-68
2021/09/14 10:04:11;;;;;;;11.73;3.15;;;;;;;18.37;63.55;100837.44;5106262;28;20043;-68
2021/09/14 10:06:40;;;;;;;6.72;2.45;;;;;;;18.54;62.30;100840.34;5097816;28;20047;-68
2021/09/14 10:09:05;;;;;;;4.40;2.30;;;;;;;18.55;62.02;100839.41;5106314;28;20044;-69
2021/09/14 10:11:33;;;;;;;7.00;2.63;;;;;;;18.66;62.18;100840.78;5106054;28;20031;-69
2021/09/14 10:14:04;;;;;;;5.97;2.40;;;;;;;18.93;62.40;100831.06;5106225;28;20032;-68
2021/09/14 10:16:31;;;;;;;8.75;2.38;;;;;;;20.04;60.76;100832.13;5105939;28;20024;-69
2021/09/14 10:19:07;;;;;;;5.32;2.10;;;;;;;20.62;57.44;100818.28;5105913;28;20038;-69
2021/09/14 10:21:32;;;;;;;9.18;2.45;;;;;;;20.38;56.29;100828.97;5105855;28;20093;-69
2021/09/14 10:23:58;;;;;;;5.90;1.98;;;;;;;19.93;57.77;100829.91;5105940;28;20020;-69
2021/09/14 10:26:35;;;;;;;4.10;2.33;;;;;;;19.74;57.94;100828.94;5105788;28;20088;-69
2021/09/14 10:29:14;;;;;;;5.40;2.25;;;;;;;19.55;59.37;100819.97;5105874;28;20087;-68
2021/09/14 10:31:41;;;;;;;5.32;1.98;;;;;;;20.23;58.78;100815.53;5105922;28;20136;-68
2021/09/14 10:34:15;;;;;;;8.98;3.00;;;;;;;20.51;56.38;100822.22;5105788;28;20016;-68
2021/09/14 10:36:42;;;;;;;6.13;2.20;;;;;;;20.81;56.08;100807.75;5105805;28;20436;-68
2021/09/14 10:39:24;;;;;;;4.88;2.35;;;;;;;20.92;55.54;100812.56;5105856;28;20063;-68
2021/09/14 10:41:53;;;;;;;5.40;2.10;;;;;;;20.63;56.21;100815.56;5106322;28;20080;-68
2021/09/14 10:44:32;;;;;;;6.72;2.67;;;;;;;20.28;56.37;100808.28;5106529;28;20051;-68
2021/09/14 10:47:13;;;;;;;7.10;1.95;;;;;;;19.98;56.97;100807.75;5105842;28;20032;-68
2021/09/14 10:50:00;;;;;;;8.53;2.87;;;;;;;19.55;57.91;100805.97;5087609;28;20069;-69
2021/09/14 10:52:42;;;;;;;5.35;1.95;;;;;;;19.01;59.83;100806.25;5105486;28;20042;-69
2021/09/14 10:55:08;;;;;;;;;;;;;;;18.92;60.38;100805.66;5105986;28;20031;-68
2021/09/14 10:57:42;;;;;;;3.33;1.65;;;;;;;18.54;61.69;100805.28;5105633;28;19915;-69
2021/09/14 11:00:10;;;;;;;3.47;1.80;;;;;;;18.31;62.92;100807.81;5105592;28;20028;-69
2021/09/14 11:02:37;;;;;;;5.50;2.00;;;;;;;17.84;64.54;100814.56;5104872;28;20472;-70
2021/09/14 11:05:04;;;;;;;9.02;2.60;;;;;;;17.75;65.52;100812.25;5105615;28;20024;-70
2021/09/14 11:07:30;;;;;;;7.85;2.55;;;;;;;17.56;66.77;100810.22;5105375;28;20124;-70
2021/09/14 11:09:58;;;;;;;5.85;2.38;;;;;;;17.45;67.89;100814.94;5105460;28;20109;-70
2021/09/14 11:12:26;;;;;;;7.13;2.67;;;;;;;17.53;68.30;100817.31;5105690;28;20046;-71
2021/09/14 11:14:52;;;;;;;5.63;2.58;;;;;;;17.60;68.39;100824.09;5086992;28;20016;-70
2021/09/14 11:17:29;;;;;;;6.45;2.13;;;;;;;17.70;68.11;100814.16;5105226;28;20024;-71
2021/09/14 11:20:06;;;;;;;6.15;2.28;;;;;;;17.82;68.24;100813.78;5108549;28;20050;-70
2021/09/14 11:22:34;;;;;;;8.95;2.55;;;;;;;17.74;68.55;100822.78;5109050;28;20039;-70
2021/09/14 11:25:00;;;;;;;6.30;2.10;;;;;;;17.67;69.29;100819.50;5109041;28;20020;-70
2021/09/14 11:27:27;;;;;;;7.40;2.17;;;;;;;17.76;69.25;100818.38;5109088;28;20046;-70
2021/09/14 11:29:52;;;;;;;7.80;2.75;;;;;;;17.86;69.26;100818.94;5090864;28;20024;-71
2021/09/14 11:32:18;;;;;;;8.27;2.35;;;;;;;17.95;68.42;100802.88;5108828;28;20057;-70
2021/09/14 11:34:44;;;;;;;10.43;2.40;;;;;;;18.11;67.57;100818.97;5090460;28;20027;-70
2021/09/14 11:37:09;;;;;;;8.57;1.95;;;;;;;18.16;67.02;100817.06;5090749;28;20012;-69
2021/09/14 11:39:36;;;;;;;6.20;2.45;;;;;;;18.26;66.76;100814.16;5109119;28;20027;-69
2021/09/14 11:42:02;;;;;;;8.40;2.60;;;;;;;18.27;65.53;100813.22;5108877;28;20030;-69
2021/09/14 11:44:28;;;;;;;8.70;2.92;;;;;;;18.36;65.10;100820.78;5108548;28;20087;-69
2021/09/14 11:46:54;;;;;;;5.13;1.80;;;;;;;18.39;64.32;100823.31;5108694;28;20031;-69
2021/09/14 11:49:27;;;;;;;3.53;1.60;;;;;;;18.34;64.52;100806.84;5108667;28;20494;-68
2021/09/14 11:52:00;;;;;;;7.10;1.98;;;;;;;18.42;64.13;100817.06;5108826;28;20083;-69
2021/09/14 11:54:33;;;;;;;6.00;1.45;;;;;;;18.47;63.74;100822.22;5108627;28;20024;-69
2021/09/14 11:56:59;;;;;;;14.02;2.40;;;;;;;18.52;63.79;100818.50;5090366;28;20020;-68
2021/09/14 11:59:36;;;;;;;4.53;1.60;;;;;;;18.58;63.86;100815.63;5108380;28;20057;-69
2021/09/14 12:02:03;;;;;;;7.28;1.80;;;;;;;18.57;63.61;100819.19;5108474;28;20052;-70
2021/09/14 12:04:28;;;;;;;5.15;2.13;;;;;;;18.53;63.66;100822.00;5108233;28;20445;-69
2021/09/14 12:06:55;;;;;;;10.50;1.88;;;;;;;18.49;63.70;100818.59;5108359;28;20016;-69
2021/09/14 12:09:23;;;;;;;7.50;1.80;;;;;;;18.41;63.94;100818.88;5108634;28;20031;-69
2021/09/14 12:11:59;;;;;;;9.30;1.80;;;;;;;18.35;64.41;100826.97;5108308;28;20036;-69
2021/09/14 12:14:26;;;;;;;7.70;1.95;;;;;;;18.23;64.63;100822.97;5108094;28;20034;-69
2021/09/14 12:16:58;;;;;;;5.20;1.48;;;;;;;18.13;64.80;100821.59;5108148;28;20460;-69
2021/09/14 12:19:23;;;;;;;11.93;2.90;;;;;;;18.11;65.18;100826.88;5107958;28;20032;-68
2021/09/14 12:21:49;;;;;;;4.82;1.70;;;;;;;18.08;65.46;100817.28;5107811;28;20055;-68